Aérodrome :
LOGIN :

S'inscrire | Disclaimer

   EN    FR    IT 

 










Légende :    VFR   VFR Marginal   IFR   IFR Intensif   IFR Très Intensif
Visi : 
Plafond : 
>= 8 km
>= 3000ft
5 à 8 km
1000 à 3000 ft
1500m à 5 km
500 à 1000 ft
800 à 1500m
200 à 500 ft
< 800m
< 200 ft
Symboles :   Orages  Brouillard  Fortes neiges  Fortes précipitations  Vent > 20 kt
SIGMETs :   Divers  Orages  Givrage  Turbulence  Onde Orograph.  Cendres Volcan.






- Altitude de l'aérodrome : 1411 ft
- Code IATA : GVA


LSGG - Genève Cointrin

DERNIER METAR :
  • 121920Z 24005KT 9999 FEW060 BKN080 03/M02 Q0998 BECMG 4000 -SN BKN010

METARs EXPIRÉS :
  • 121850Z 25004KT 9999 FEW060 BKN080 03/M02 Q0999 BECMG 4000 -SN BKN010
  • 121820Z 24003KT 9999 FEW060 BKN080 03/M02 Q1000 NOSIG
  • 121750Z 25007KT 9999 FEW065 BKN085 04/M02 Q1000 NOSIG
  • 121720Z 25003KT 220V330 CAVOK 03/M02 Q1001 NOSIG
  • 121650Z 26005KT 9999 FEW065 02/M02 Q1001 NOSIG

TAF AMD TAF LSGG
Valide du 12 à 18h jusqu'au 14 à 00h UTC


121812Z 1218/1324 23008KT 9999 FEW060 TX07/1313Z TN02/1303Z
BECMG 1219/1220 3000 SNRA SCT010 BKN014
TEMPO 1220/1301 1500 SN VV005
BECMG 1300/1302 6000 SHRA FEW010TCU BKN030
TEMPO 1306/1324 22015G30KT
ATIS : +41 22 417 40 81



MET'MAP, la Météo Aéronautique d'un coup d'oeil ! - Copyright ORBIFLY Décembre 2007 - Disclaimer

ORBIFLY MET'MAP TEAM :

Programmation & Développement : Alexandra Zaïnal
Sur une idée originale de : Baudouin d'Aumeries
Assistance à la programmation : Marc-Olivier Méhu
Soutien technique & logistique : Manuel Goepfert

Contact : metmap@orbifly.com




SOURCES & CREDITS :

   NOAA